sensor_id;sensor_type;location;lat;lon;timestamp;P1;durP1;ratioP1;P2;durP2;ratioP2
35699;SDS011;21818;51.078;12.108;2022-12-10T00:01:36;19.67;;;10.70;;
35699;SDS011;21818;51.078;12.108;2022-12-10T00:04:02;22.52;;;11.93;;
35699;SDS011;21818;51.078;12.108;2022-12-10T00:06:30;22.80;;;11.90;;
35699;SDS011;21818;51.078;12.108;2022-12-10T00:08:58;21.70;;;11.38;;
35699;SDS011;21818;51.078;12.108;2022-12-10T00:11:25;22.00;;;11.75;;
35699;SDS011;21818;51.078;12.108;2022-12-10T00:13:50;24.27;;;11.57;;
35699;SDS011;21818;51.078;12.108;2022-12-10T00:16:18;24.25;;;12.38;;
35699;SDS011;21818;51.078;12.108;2022-12-10T00:18:45;22.40;;;10.57;;
35699;SDS011;21818;51.078;12.108;2022-12-10T00:21:13;23.00;;;11.48;;
35699;SDS011;21818;51.078;12.108;2022-12-10T00:23:41;22.67;;;11.15;;
35699;SDS011;21818;51.078;12.108;2022-12-10T00:26:11;24.98;;;12.48;;
35699;SDS011;21818;51.078;12.108;2022-12-10T00:28:41;21.45;;;10.98;;
35699;SDS011;21818;51.078;12.108;2022-12-10T00:31:18;22.33;;;11.48;;
35699;SDS011;21818;51.078;12.108;2022-12-10T00:33:46;21.65;;;11.07;;
35699;SDS011;21818;51.078;12.108;2022-12-10T00:36:17;22.85;;;11.25;;
35699;SDS011;21818;51.078;12.108;2022-12-10T00:38:47;21.92;;;11.43;;
35699;SDS011;21818;51.078;12.108;2022-12-10T00:41:14;22.27;;;11.93;;
35699;SDS011;21818;51.078;12.108;2022-12-10T00:43:40;20.17;;;10.70;;
35699;SDS011;21818;51.078;12.108;2022-12-10T00:46:06;20.60;;;11.25;;
35699;SDS011;21818;51.078;12.108;2022-12-10T00:48:32;20.00;;;10.73;;
35699;SDS011;21818;51.078;12.108;2022-12-10T00:50:59;20.45;;;10.60;;
35699;SDS011;21818;51.078;12.108;2022-12-10T00:53:26;19.42;;;10.77;;
35699;SDS011;21818;51.078;12.108;2022-12-10T00:55:53;22.30;;;10.88;;
35699;SDS011;21818;51.078;12.108;2022-12-10T00:58:19;23.92;;;11.77;;
35699;SDS011;21818;51.078;12.108;2022-12-10T01:00:45;18.05;;;9.85;;
35699;SDS011;21818;51.078;12.108;2022-12-10T01:03:11;22.52;;;11.07;;
35699;SDS011;21818;51.078;12.108;2022-12-10T01:05:37;17.75;;;9.55;;
35699;SDS011;21818;51.078;12.108;2022-12-10T01:08:02;19.95;;;11.32;;
35699;SDS011;21818;51.078;12.108;2022-12-10T01:10:28;21.52;;;10.25;;
35699;SDS011;21818;51.078;12.108;2022-12-10T01:12:54;17.83;;;10.82;;
35699;SDS011;21818;51.078;12.108;2022-12-10T01:15:19;20.30;;;10.75;;
35699;SDS011;21818;51.078;12.108;2022-12-10T01:17:45;16.45;;;9.57;;
35699;SDS011;21818;51.078;12.108;2022-12-10T01:20:10;21.23;;;10.95;;
35699;SDS011;21818;51.078;12.108;2022-12-10T01:22:37;18.38;;;9.60;;
35699;SDS011;21818;51.078;12.108;2022-12-10T01:25:03;18.60;;;10.45;;
35699;SDS011;21818;51.078;12.108;2022-12-10T01:27:29;19.08;;;10.25;;
35699;SDS011;21818;51.078;12.108;2022-12-10T01:29:55;19.25;;;10.15;;
35699;SDS011;21818;51.078;12.108;2022-12-10T01:32:20;18.65;;;9.98;;
35699;SDS011;21818;51.078;12.108;2022-12-10T01:34:46;19.30;;;10.20;;
35699;SDS011;21818;51.078;12.108;2022-12-10T01:37:12;19.50;;;10.55;;
35699;SDS011;21818;51.078;12.108;2022-12-10T01:39:37;17.73;;;9.35;;
35699;SDS011;21818;51.078;12.108;2022-12-10T01:42:04;19.90;;;10.10;;
35699;SDS011;21818;51.078;12.108;2022-12-10T01:46:56;20.25;;;10.27;;
35699;SDS011;21818;51.078;12.108;2022-12-10T01:51:52;17.90;;;9.80;;
35699;SDS011;21818;51.078;12.108;2022-12-10T01:54:21;18.42;;;9.68;;
35699;SDS011;21818;51.078;12.108;2022-12-10T01:56:58;18.10;;;10.05;;
35699;SDS011;21818;51.078;12.108;2022-12-10T01:59:30;17.60;;;9.55;;
35699;SDS011;21818;51.078;12.108;2022-12-10T02:07:39;17.33;;;9.68;;
35699;SDS011;21818;51.078;12.108;2022-12-10T02:10:46;18.25;;;9.43;;
35699;SDS011;21818;51.078;12.108;2022-12-10T02:13:51;17.55;;;9.07;;
35699;SDS011;21818;51.078;12.108;2022-12-10T02:16:14;18.50;;;9.60;;
35699;SDS011;21818;51.078;12.108;2022-12-10T02:18:49;19.00;;;9.82;;
35699;SDS011;21818;51.078;12.108;2022-12-10T02:21:22;19.38;;;10.20;;
35699;SDS011;21818;51.078;12.108;2022-12-10T02:23:57;16.52;;;8.80;;
35699;SDS011;21818;51.078;12.108;2022-12-10T02:29:20;19.73;;;10.25;;
35699;SDS011;21818;51.078;12.108;2022-12-10T02:32:03;15.98;;;9.07;;
35699;SDS011;21818;51.078;12.108;2022-12-10T02:34:58;17.52;;;9.40;;
35699;SDS011;21818;51.078;12.108;2022-12-10T02:37:33;20.73;;;10.13;;
35699;SDS011;21818;51.078;12.108;2022-12-10T02:40:04;16.88;;;9.00;;
35699;SDS011;21818;51.078;12.108;2022-12-10T02:45:02;18.77;;;9.75;;
35699;SDS011;21818;51.078;12.108;2022-12-10T02:47:29;20.33;;;11.20;;
35699;SDS011;21818;51.078;12.108;2022-12-10T02:49:55;17.95;;;9.68;;
35699;SDS011;21818;51.078;12.108;2022-12-10T02:52:23;17.95;;;9.18;;
35699;SDS011;21818;51.078;12.108;2022-12-10T02:54:50;19.40;;;9.88;;
35699;SDS011;21818;51.078;12.108;2022-12-10T03:03:00;17.20;;;9.38;;
35699;SDS011;21818;51.078;12.108;2022-12-10T03:05:48;17.80;;;8.90;;
35699;SDS011;21818;51.078;12.108;2022-12-10T03:08:27;18.58;;;8.85;;
35699;SDS011;21818;51.078;12.108;2022-12-10T03:11:04;22.88;;;10.10;;
35699;SDS011;21818;51.078;12.108;2022-12-10T03:13:59;17.58;;;9.25;;
35699;SDS011;21818;51.078;12.108;2022-12-10T03:16:35;17.75;;;9.73;;
35699;SDS011;21818;51.078;12.108;2022-12-10T03:19:11;18.08;;;9.30;;
35699;SDS011;21818;51.078;12.108;2022-12-10T03:21:42;19.52;;;9.95;;
35699;SDS011;21818;51.078;12.108;2022-12-10T03:24:11;17.90;;;10.02;;
35699;SDS011;21818;51.078;12.108;2022-12-10T03:26:38;18.02;;;9.98;;
35699;SDS011;21818;51.078;12.108;2022-12-10T03:29:07;15.80;;;9.00;;
35699;SDS011;21818;51.078;12.108;2022-12-10T03:31:35;15.85;;;8.77;;
35699;SDS011;21818;51.078;12.108;2022-12-10T03:34:03;17.55;;;9.35;;
35699;SDS011;21818;51.078;12.108;2022-12-10T03:36:30;18.40;;;9.82;;
35699;SDS011;21818;51.078;12.108;2022-12-10T03:38:57;18.75;;;9.68;;
35699;SDS011;21818;51.078;12.108;2022-12-10T03:41:23;16.55;;;9.38;;
35699;SDS011;21818;51.078;12.108;2022-12-10T03:43:50;20.33;;;10.13;;
35699;SDS011;21818;51.078;12.108;2022-12-10T03:46:20;19.23;;;9.88;;
35699;SDS011;21818;51.078;12.108;2022-12-10T03:48:46;18.88;;;9.68;;
35699;SDS011;21818;51.078;12.108;2022-12-10T03:51:12;20.08;;;10.75;;
35699;SDS011;21818;51.078;12.108;2022-12-10T03:53:38;18.35;;;9.93;;
35699;SDS011;21818;51.078;12.108;2022-12-10T03:56:03;19.38;;;10.10;;
35699;SDS011;21818;51.078;12.108;2022-12-10T03:58:29;20.45;;;9.77;;
35699;SDS011;21818;51.078;12.108;2022-12-10T04:00:55;21.58;;;10.05;;
35699;SDS011;21818;51.078;12.108;2022-12-10T04:03:20;18.48;;;9.68;;
35699;SDS011;21818;51.078;12.108;2022-12-10T04:05:46;17.75;;;9.35;;
35699;SDS011;21818;51.078;12.108;2022-12-10T04:08:11;21.67;;;10.75;;
35699;SDS011;21818;51.078;12.108;2022-12-10T04:10:37;24.20;;;10.45;;
35699;SDS011;21818;51.078;12.108;2022-12-10T04:13:03;18.48;;;9.13;;
35699;SDS011;21818;51.078;12.108;2022-12-10T04:15:48;20.27;;;10.07;;
35699;SDS011;21818;51.078;12.108;2022-12-10T04:18:32;18.63;;;9.60;;
35699;SDS011;21818;51.078;12.108;2022-12-10T04:20:58;17.58;;;10.23;;
35699;SDS011;21818;51.078;12.108;2022-12-10T04:23:42;20.02;;;10.07;;
35699;SDS011;21818;51.078;12.108;2022-12-10T04:26:26;19.35;;;9.85;;
35699;SDS011;21818;51.078;12.108;2022-12-10T04:29:10;20.65;;;10.52;;
35699;SDS011;21818;51.078;12.108;2022-12-10T04:31:36;20.83;;;9.93;;
35699;SDS011;21818;51.078;12.108;2022-12-10T04:34:01;18.70;;;10.38;;
35699;SDS011;21818;51.078;12.108;2022-12-10T04:36:27;18.48;;;9.75;;
35699;SDS011;21818;51.078;12.108;2022-12-10T04:38:52;20.67;;;10.30;;
35699;SDS011;21818;51.078;12.108;2022-12-10T04:41:18;19.85;;;10.07;;
35699;SDS011;21818;51.078;12.108;2022-12-10T04:43:44;19.40;;;9.90;;
35699;SDS011;21818;51.078;12.108;2022-12-10T04:46:09;23.20;;;11.27;;
35699;SDS011;21818;51.078;12.108;2022-12-10T04:48:35;19.65;;;9.95;;
35699;SDS011;21818;51.078;12.108;2022-12-10T04:51:01;20.15;;;9.95;;
35699;SDS011;21818;51.078;12.108;2022-12-10T04:53:26;21.67;;;11.02;;
35699;SDS011;21818;51.078;12.108;2022-12-10T04:55:52;20.30;;;10.15;;
35699;SDS011;21818;51.078;12.108;2022-12-10T04:58:18;21.75;;;10.60;;
35699;SDS011;21818;51.078;12.108;2022-12-10T05:00:43;21.33;;;10.25;;
35699;SDS011;21818;51.078;12.108;2022-12-10T05:03:09;19.33;;;9.68;;
35699;SDS011;21818;51.078;12.108;2022-12-10T05:05:35;19.65;;;10.20;;
35699;SDS011;21818;51.078;12.108;2022-12-10T05:08:00;19.30;;;9.95;;
35699;SDS011;21818;51.078;12.108;2022-12-10T05:10:26;24.67;;;12.07;;
35699;SDS011;21818;51.078;12.108;2022-12-10T05:12:52;22.15;;;11.13;;
35699;SDS011;21818;51.078;12.108;2022-12-10T05:15:17;20.45;;;10.05;;
35699;SDS011;21818;51.078;12.108;2022-12-10T05:17:43;22.70;;;11.55;;
35699;SDS011;21818;51.078;12.108;2022-12-10T05:20:09;23.35;;;11.25;;
35699;SDS011;21818;51.078;12.108;2022-12-10T05:22:35;21.25;;;10.52;;
35699;SDS011;21818;51.078;12.108;2022-12-10T05:25:19;23.48;;;10.55;;
35699;SDS011;21818;51.078;12.108;2022-12-10T05:27:45;21.33;;;10.75;;
35699;SDS011;21818;51.078;12.108;2022-12-10T05:30:11;21.95;;;10.32;;
35699;SDS011;21818;51.078;12.108;2022-12-10T05:32:37;22.27;;;11.65;;
35699;SDS011;21818;51.078;12.108;2022-12-10T05:35:02;22.10;;;10.80;;
35699;SDS011;21818;51.078;12.108;2022-12-10T05:37:28;21.30;;;10.68;;
35699;SDS011;21818;51.078;12.108;2022-12-10T05:39:54;21.17;;;11.48;;
35699;SDS011;21818;51.078;12.108;2022-12-10T05:42:20;21.42;;;10.60;;
35699;SDS011;21818;51.078;12.108;2022-12-10T05:44:45;22.30;;;11.23;;
35699;SDS011;21818;51.078;12.108;2022-12-10T05:47:11;21.58;;;10.02;;
35699;SDS011;21818;51.078;12.108;2022-12-10T05:49:36;23.50;;;11.82;;
35699;SDS011;21818;51.078;12.108;2022-12-10T05:52:02;22.85;;;10.52;;
35699;SDS011;21818;51.078;12.108;2022-12-10T05:54:28;22.90;;;11.13;;
35699;SDS011;21818;51.078;12.108;2022-12-10T05:56:53;18.20;;;10.30;;
35699;SDS011;21818;51.078;12.108;2022-12-10T05:59:19;21.05;;;11.23;;
35699;SDS011;21818;51.078;12.108;2022-12-10T06:01:45;25.08;;;12.00;;
35699;SDS011;21818;51.078;12.108;2022-12-10T06:04:11;20.75;;;11.43;;
35699;SDS011;21818;51.078;12.108;2022-12-10T06:06:37;20.45;;;10.70;;
35699;SDS011;21818;51.078;12.108;2022-12-10T06:09:04;20.60;;;10.05;;
35699;SDS011;21818;51.078;12.108;2022-12-10T06:11:31;22.38;;;10.90;;
35699;SDS011;21818;51.078;12.108;2022-12-10T06:13:58;23.33;;;10.18;;
35699;SDS011;21818;51.078;12.108;2022-12-10T06:16:24;20.45;;;10.35;;
35699;SDS011;21818;51.078;12.108;2022-12-10T06:18:51;20.42;;;9.93;;
35699;SDS011;21818;51.078;12.108;2022-12-10T06:21:17;21.65;;;11.02;;
35699;SDS011;21818;51.078;12.108;2022-12-10T06:23:44;19.83;;;10.07;;
35699;SDS011;21818;51.078;12.108;2022-12-10T06:26:14;19.95;;;9.18;;
35699;SDS011;21818;51.078;12.108;2022-12-10T06:28:41;25.88;;;11.15;;
35699;SDS011;21818;51.078;12.108;2022-12-10T06:31:09;21.23;;;10.57;;
35699;SDS011;21818;51.078;12.108;2022-12-10T06:33:35;18.55;;;9.98;;
35699;SDS011;21818;51.078;12.108;2022-12-10T06:36:04;19.35;;;9.65;;
35699;SDS011;21818;51.078;12.108;2022-12-10T06:38:31;17.42;;;9.25;;
35699;SDS011;21818;51.078;12.108;2022-12-10T06:40:57;21.13;;;10.88;;
35699;SDS011;21818;51.078;12.108;2022-12-10T06:43:23;23.02;;;11.32;;
35699;SDS011;21818;51.078;12.108;2022-12-10T06:45:48;22.90;;;10.35;;
35699;SDS011;21818;51.078;12.108;2022-12-10T06:48:14;19.58;;;9.50;;
35699;SDS011;21818;51.078;12.108;2022-12-10T06:50:39;20.67;;;10.00;;
35699;SDS011;21818;51.078;12.108;2022-12-10T06:53:06;21.88;;;10.70;;
35699;SDS011;21818;51.078;12.108;2022-12-10T06:55:31;17.95;;;9.90;;
35699;SDS011;21818;51.078;12.108;2022-12-10T06:57:57;19.60;;;9.48;;
35699;SDS011;21818;51.078;12.108;2022-12-10T07:00:23;19.67;;;9.65;;
35699;SDS011;21818;51.078;12.108;2022-12-10T07:02:48;20.98;;;10.65;;
35699;SDS011;21818;51.078;12.108;2022-12-10T07:05:14;20.45;;;10.23;;
35699;SDS011;21818;51.078;12.108;2022-12-10T07:07:40;21.48;;;11.07;;
35699;SDS011;21818;51.078;12.108;2022-12-10T07:10:06;23.02;;;11.45;;
35699;SDS011;21818;51.078;12.108;2022-12-10T07:12:32;21.00;;;9.57;;
35699;SDS011;21818;51.078;12.108;2022-12-10T07:14:57;23.95;;;12.38;;
35699;SDS011;21818;51.078;12.108;2022-12-10T07:17:23;24.85;;;11.57;;
35699;SDS011;21818;51.078;12.108;2022-12-10T07:19:49;21.67;;;10.85;;
35699;SDS011;21818;51.078;12.108;2022-12-10T07:22:14;21.55;;;10.80;;
35699;SDS011;21818;51.078;12.108;2022-12-10T07:24:40;22.48;;;10.85;;
35699;SDS011;21818;51.078;12.108;2022-12-10T07:27:06;24.27;;;11.45;;
35699;SDS011;21818;51.078;12.108;2022-12-10T07:29:32;22.92;;;11.52;;
35699;SDS011;21818;51.078;12.108;2022-12-10T07:31:58;22.38;;;10.95;;
35699;SDS011;21818;51.078;12.108;2022-12-10T07:34:23;22.88;;;11.63;;
35699;SDS011;21818;51.078;12.108;2022-12-10T07:36:49;23.65;;;11.43;;
35699;SDS011;21818;51.078;12.108;2022-12-10T07:39:15;24.35;;;12.07;;
35699;SDS011;21818;51.078;12.108;2022-12-10T07:41:44;21.50;;;10.80;;
35699;SDS011;21818;51.078;12.108;2022-12-10T07:44:12;21.38;;;11.50;;
35699;SDS011;21818;51.078;12.108;2022-12-10T07:46:38;22.35;;;11.07;;
35699;SDS011;21818;51.078;12.108;2022-12-10T07:49:04;25.05;;;12.52;;
35699;SDS011;21818;51.078;12.108;2022-12-10T07:51:30;23.58;;;11.43;;
35699;SDS011;21818;51.078;12.108;2022-12-10T07:53:56;19.33;;;8.48;;
35699;SDS011;21818;51.078;12.108;2022-12-10T07:56:22;20.15;;;9.57;;
35699;SDS011;21818;51.078;12.108;2022-12-10T07:58:49;17.33;;;8.52;;
35699;SDS011;21818;51.078;12.108;2022-12-10T08:01:16;18.02;;;8.65;;
35699;SDS011;21818;51.078;12.108;2022-12-10T08:03:43;15.85;;;7.50;;
35699;SDS011;21818;51.078;12.108;2022-12-10T08:06:13;12.80;;;7.43;;
35699;SDS011;21818;51.078;12.108;2022-12-10T08:08:41;14.13;;;7.53;;
35699;SDS011;21818;51.078;12.108;2022-12-10T08:11:07;14.65;;;6.80;;
35699;SDS011;21818;51.078;12.108;2022-12-10T08:13:34;12.70;;;5.47;;
35699;SDS011;21818;51.078;12.108;2022-12-10T08:16:04;16.10;;;6.20;;
35699;SDS011;21818;51.078;12.108;2022-12-10T08:18:32;13.45;;;7.38;;
35699;SDS011;21818;51.078;12.108;2022-12-10T08:21:02;16.13;;;7.50;;
35699;SDS011;21818;51.078;12.108;2022-12-10T08:23:29;12.57;;;7.72;;
35699;SDS011;21818;51.078;12.108;2022-12-10T08:25:55;13.80;;;7.97;;
35699;SDS011;21818;51.078;12.108;2022-12-10T08:28:20;12.57;;;7.07;;
35699;SDS011;21818;51.078;12.108;2022-12-10T08:30:46;14.07;;;6.95;;
35699;SDS011;21818;51.078;12.108;2022-12-10T08:33:13;13.65;;;7.70;;
35699;SDS011;21818;51.078;12.108;2022-12-10T08:35:38;13.48;;;6.85;;
35699;SDS011;21818;51.078;12.108;2022-12-10T08:38:04;10.25;;;5.80;;
35699;SDS011;21818;51.078;12.108;2022-12-10T08:40:30;13.40;;;6.68;;
35699;SDS011;21818;51.078;12.108;2022-12-10T08:42:55;14.10;;;6.63;;
35699;SDS011;21818;51.078;12.108;2022-12-10T08:45:21;10.70;;;5.65;;
35699;SDS011;21818;51.078;12.108;2022-12-10T08:47:46;9.38;;;5.53;;
35699;SDS011;21818;51.078;12.108;2022-12-10T08:50:12;10.80;;;5.82;;
35699;SDS011;21818;51.078;12.108;2022-12-10T08:52:37;11.40;;;6.18;;
35699;SDS011;21818;51.078;12.108;2022-12-10T08:55:03;11.93;;;6.05;;
35699;SDS011;21818;51.078;12.108;2022-12-10T08:57:29;10.70;;;5.60;;
35699;SDS011;21818;51.078;12.108;2022-12-10T08:59:55;9.90;;;4.97;;
35699;SDS011;21818;51.078;12.108;2022-12-10T09:02:20;9.35;;;5.30;;
35699;SDS011;21818;51.078;12.108;2022-12-10T09:04:46;7.38;;;4.55;;
35699;SDS011;21818;51.078;12.108;2022-12-10T09:07:12;8.73;;;3.97;;
35699;SDS011;21818;51.078;12.108;2022-12-10T09:09:38;5.68;;;3.95;;
35699;SDS011;21818;51.078;12.108;2022-12-10T09:12:03;7.97;;;4.38;;
35699;SDS011;21818;51.078;12.108;2022-12-10T09:14:29;7.20;;;3.65;;
35699;SDS011;21818;51.078;12.108;2022-12-10T09:16:55;7.75;;;4.57;;
35699;SDS011;21818;51.078;12.108;2022-12-10T09:19:20;6.55;;;4.03;;
35699;SDS011;21818;51.078;12.108;2022-12-10T09:21:46;5.45;;;3.75;;
35699;SDS011;21818;51.078;12.108;2022-12-10T09:24:12;5.80;;;3.75;;
35699;SDS011;21818;51.078;12.108;2022-12-10T09:26:38;6.25;;;3.42;;
35699;SDS011;21818;51.078;12.108;2022-12-10T09:29:04;6.75;;;3.83;;
35699;SDS011;21818;51.078;12.108;2022-12-10T09:31:29;8.77;;;4.30;;
35699;SDS011;21818;51.078;12.108;2022-12-10T09:33:55;6.72;;;3.65;;
35699;SDS011;21818;51.078;12.108;2022-12-10T09:36:21;5.88;;;3.35;;
35699;SDS011;21818;51.078;12.108;2022-12-10T09:38:47;7.07;;;4.10;;
35699;SDS011;21818;51.078;12.108;2022-12-10T09:49:23;5.63;;;3.37;;
35699;SDS011;21818;51.078;12.108;2022-12-10T09:52:05;5.90;;;3.67;;
35699;SDS011;21818;51.078;12.108;2022-12-10T09:54:43;6.72;;;3.20;;
35699;SDS011;21818;51.078;12.108;2022-12-10T10:00:03;4.93;;;3.20;;
35699;SDS011;21818;51.078;12.108;2022-12-10T10:02:32;6.38;;;3.10;;
35699;SDS011;21818;51.078;12.108;2022-12-10T10:05:00;6.05;;;3.90;;
35699;SDS011;21818;51.078;12.108;2022-12-10T10:07:37;5.80;;;3.53;;
35699;SDS011;21818;51.078;12.108;2022-12-10T10:10:07;6.30;;;3.45;;
35699;SDS011;21818;51.078;12.108;2022-12-10T10:12:55;5.18;;;3.00;;
35699;SDS011;21818;51.078;12.108;2022-12-10T10:15:30;6.93;;;4.53;;
35699;SDS011;21818;51.078;12.108;2022-12-10T10:17:59;5.20;;;3.13;;
35699;SDS011;21818;51.078;12.108;2022-12-10T10:20:46;5.15;;;3.05;;
35699;SDS011;21818;51.078;12.108;2022-12-10T10:23:14;5.90;;;3.75;;
35699;SDS011;21818;51.078;12.108;2022-12-10T10:25:40;11.10;;;3.10;;
35699;SDS011;21818;51.078;12.108;2022-12-10T10:28:09;5.78;;;3.22;;
35699;SDS011;21818;51.078;12.108;2022-12-10T10:30:37;3.58;;;2.83;;
35699;SDS011;21818;51.078;12.108;2022-12-10T10:33:09;5.22;;;3.35;;
35699;SDS011;21818;51.078;12.108;2022-12-10T10:35:46;5.40;;;3.10;;
35699;SDS011;21818;51.078;12.108;2022-12-10T10:38:22;4.90;;;2.83;;
35699;SDS011;21818;51.078;12.108;2022-12-10T10:40:52;4.93;;;2.97;;
35699;SDS011;21818;51.078;12.108;2022-12-10T10:43:22;5.30;;;3.35;;
35699;SDS011;21818;51.078;12.108;2022-12-10T10:45:58;5.65;;;3.60;;
35699;SDS011;21818;51.078;12.108;2022-12-10T10:48:29;5.13;;;3.05;;
35699;SDS011;21818;51.078;12.108;2022-12-10T10:51:05;6.32;;;3.30;;
35699;SDS011;21818;51.078;12.108;2022-12-10T10:53:42;9.93;;;5.20;;
35699;SDS011;21818;51.078;12.108;2022-12-10T11:01:26;5.90;;;3.50;;
35699;SDS011;21818;51.078;12.108;2022-12-10T11:04:08;4.93;;;3.05;;
35699;SDS011;21818;51.078;12.108;2022-12-10T11:06:34;7.35;;;3.40;;
35699;SDS011;21818;51.078;12.108;2022-12-10T11:09:00;4.70;;;3.10;;
35699;SDS011;21818;51.078;12.108;2022-12-10T11:11:41;5.55;;;2.80;;
35699;SDS011;21818;51.078;12.108;2022-12-10T11:16:48;4.22;;;2.95;;
35699;SDS011;21818;51.078;12.108;2022-12-10T11:19:22;8.15;;;3.30;;
35699;SDS011;21818;51.078;12.108;2022-12-10T11:21:48;5.93;;;2.70;;
35699;SDS011;21818;51.078;12.108;2022-12-10T11:24:15;4.97;;;3.25;;
35699;SDS011;21818;51.078;12.108;2022-12-10T11:35:12;3.70;;;2.45;;
35699;SDS011;21818;51.078;12.108;2022-12-10T11:38:03;4.65;;;2.90;;
35699;SDS011;21818;51.078;12.108;2022-12-10T11:40:58;4.90;;;2.88;;
35699;SDS011;21818;51.078;12.108;2022-12-10T11:55:00;5.50;;;3.08;;
35699;SDS011;21818;51.078;12.108;2022-12-10T12:00:24;4.03;;;2.20;;
35699;SDS011;21818;51.078;12.108;2022-12-10T12:03:11;4.38;;;2.63;;
35699;SDS011;21818;51.078;12.108;2022-12-10T12:05:58;4.03;;;2.63;;
35699;SDS011;21818;51.078;12.108;2022-12-10T12:14:14;4.53;;;2.55;;
35699;SDS011;21818;51.078;12.108;2022-12-10T12:17:02;4.05;;;2.47;;
35699;SDS011;21818;51.078;12.108;2022-12-10T12:19:56;5.30;;;2.47;;
35699;SDS011;21818;51.078;12.108;2022-12-10T12:22:27;3.80;;;2.60;;
35699;SDS011;21818;51.078;12.108;2022-12-10T12:25:02;3.65;;;2.47;;
35699;SDS011;21818;51.078;12.108;2022-12-10T12:27:38;4.85;;;2.83;;
35699;SDS011;21818;51.078;12.108;2022-12-10T12:30:18;3.22;;;2.30;;
35699;SDS011;21818;51.078;12.108;2022-12-10T12:35:25;3.35;;;2.30;;
35699;SDS011;21818;51.078;12.108;2022-12-10T12:38:17;4.35;;;2.42;;
35699;SDS011;21818;51.078;12.108;2022-12-10T12:43:42;3.25;;;2.35;;
35699;SDS011;21818;51.078;12.108;2022-12-10T12:46:26;4.70;;;2.90;;
35699;SDS011;21818;51.078;12.108;2022-12-10T12:49:00;4.70;;;2.58;;
35699;SDS011;21818;51.078;12.108;2022-12-10T12:51:53;4.38;;;2.72;;
35699;SDS011;21818;51.078;12.108;2022-12-10T12:54:48;4.30;;;2.60;;
35699;SDS011;21818;51.078;12.108;2022-12-10T12:57:15;5.05;;;2.88;;
35699;SDS011;21818;51.078;12.108;2022-12-10T13:05:31;4.60;;;2.58;;
35699;SDS011;21818;51.078;12.108;2022-12-10T13:11:29;3.97;;;2.22;;
35699;SDS011;21818;51.078;12.108;2022-12-10T13:13:36;4.25;;;2.40;;
35699;SDS011;21818;51.078;12.108;2022-12-10T13:24:20;5.00;;;2.40;;
35699;SDS011;21818;51.078;12.108;2022-12-10T13:29:46;5.25;;;3.38;;
35699;SDS011;21818;51.078;12.108;2022-12-10T13:35:15;6.60;;;3.80;;
35699;SDS011;21818;51.078;12.108;2022-12-10T13:37:34;5.90;;;2.80;;
35699;SDS011;21818;51.078;12.108;2022-12-10T13:42:33;5.68;;;2.63;;
35699;SDS011;21818;51.078;12.108;2022-12-10T13:47:52;4.10;;;2.42;;
35699;SDS011;21818;51.078;12.108;2022-12-10T13:53:24;3.72;;;2.35;;
35699;SDS011;21818;51.078;12.108;2022-12-10T14:01:51;4.90;;;2.47;;
35699;SDS011;21818;51.078;12.108;2022-12-10T14:04:47;3.03;;;2.17;;
35699;SDS011;21818;51.078;12.108;2022-12-10T14:07:21;4.80;;;2.65;;
35699;SDS011;21818;51.078;12.108;2022-12-10T14:09:52;5.38;;;3.05;;
35699;SDS011;21818;51.078;12.108;2022-12-10T14:12:29;4.18;;;2.35;;
35699;SDS011;21818;51.078;12.108;2022-12-10T14:15:03;5.47;;;2.30;;
35699;SDS011;21818;51.078;12.108;2022-12-10T14:17:40;3.75;;;2.40;;
35699;SDS011;21818;51.078;12.108;2022-12-10T14:20:08;5.03;;;2.33;;
35699;SDS011;21818;51.078;12.108;2022-12-10T14:22:46;4.95;;;2.25;;
35699;SDS011;21818;51.078;12.108;2022-12-10T14:25:18;4.28;;;2.30;;
35699;SDS011;21818;51.078;12.108;2022-12-10T14:27:47;4.32;;;2.40;;
35699;SDS011;21818;51.078;12.108;2022-12-10T14:30:18;3.40;;;2.20;;
35699;SDS011;21818;51.078;12.108;2022-12-10T14:32:44;4.30;;;2.47;;
35699;SDS011;21818;51.078;12.108;2022-12-10T14:35:12;2.83;;;1.75;;
35699;SDS011;21818;51.078;12.108;2022-12-10T14:37:41;3.63;;;2.15;;
35699;SDS011;21818;51.078;12.108;2022-12-10T14:40:17;3.97;;;2.50;;
35699;SDS011;21818;51.078;12.108;2022-12-10T14:42:50;3.15;;;2.08;;
35699;SDS011;21818;51.078;12.108;2022-12-10T14:45:20;4.60;;;2.63;;
35699;SDS011;21818;51.078;12.108;2022-12-10T14:47:46;3.92;;;1.95;;
35699;SDS011;21818;51.078;12.108;2022-12-10T14:50:14;4.03;;;2.28;;
35699;SDS011;21818;51.078;12.108;2022-12-10T14:52:42;4.07;;;2.17;;
35699;SDS011;21818;51.078;12.108;2022-12-10T14:55:17;4.28;;;2.50;;
35699;SDS011;21818;51.078;12.108;2022-12-10T14:57:59;3.15;;;1.98;;
35699;SDS011;21818;51.078;12.108;2022-12-10T15:00:27;3.80;;;2.15;;
35699;SDS011;21818;51.078;12.108;2022-12-10T15:02:54;4.13;;;2.30;;
35699;SDS011;21818;51.078;12.108;2022-12-10T15:05:24;3.70;;;2.08;;
35699;SDS011;21818;51.078;12.108;2022-12-10T15:07:55;3.22;;;2.28;;
35699;SDS011;21818;51.078;12.108;2022-12-10T15:10:24;4.63;;;2.10;;
35699;SDS011;21818;51.078;12.108;2022-12-10T15:13:05;3.08;;;1.80;;
35699;SDS011;21818;51.078;12.108;2022-12-10T15:15:36;3.67;;;2.33;;
35699;SDS011;21818;51.078;12.108;2022-12-10T15:20:36;3.72;;;2.00;;
35699;SDS011;21818;51.078;12.108;2022-12-10T15:28:31;3.70;;;2.03;;
35699;SDS011;21818;51.078;12.108;2022-12-10T15:33:52;2.88;;;1.77;;
35699;SDS011;21818;51.078;12.108;2022-12-10T15:36:40;5.53;;;2.15;;
35699;SDS011;21818;51.078;12.108;2022-12-10T15:41:46;4.30;;;2.00;;
35699;SDS011;21818;51.078;12.108;2022-12-10T15:47:14;4.43;;;2.35;;
35699;SDS011;21818;51.078;12.108;2022-12-10T15:49:39;2.67;;;1.70;;
35699;SDS011;21818;51.078;12.108;2022-12-10T15:52:05;3.25;;;2.20;;
35699;SDS011;21818;51.078;12.108;2022-12-10T15:54:32;3.08;;;1.88;;
35699;SDS011;21818;51.078;12.108;2022-12-10T15:57:00;4.60;;;2.20;;
35699;SDS011;21818;51.078;12.108;2022-12-10T15:59:41;3.27;;;2.27;;
35699;SDS011;21818;51.078;12.108;2022-12-10T16:08:00;3.30;;;1.98;;
35699;SDS011;21818;51.078;12.108;2022-12-10T16:10:34;2.10;;;1.73;;
35699;SDS011;21818;51.078;12.108;2022-12-10T16:13:01;4.38;;;2.03;;
35699;SDS011;21818;51.078;12.108;2022-12-10T16:15:30;3.08;;;2.05;;
35699;SDS011;21818;51.078;12.108;2022-12-10T16:18:07;4.20;;;1.95;;
35699;SDS011;21818;51.078;12.108;2022-12-10T16:20:35;3.75;;;1.98;;
35699;SDS011;21818;51.078;12.108;2022-12-10T16:23:00;3.65;;;1.98;;
35699;SDS011;21818;51.078;12.108;2022-12-10T16:25:28;6.43;;;2.13;;
35699;SDS011;21818;51.078;12.108;2022-12-10T16:27:55;3.88;;;1.70;;
35699;SDS011;21818;51.078;12.108;2022-12-10T16:30:40;3.22;;;1.88;;
35699;SDS011;21818;51.078;12.108;2022-12-10T16:33:12;3.60;;;2.33;;
35699;SDS011;21818;51.078;12.108;2022-12-10T16:35:37;3.42;;;1.75;;
35699;SDS011;21818;51.078;12.108;2022-12-10T16:38:04;3.30;;;1.90;;
35699;SDS011;21818;51.078;12.108;2022-12-10T16:40:29;3.72;;;2.13;;
35699;SDS011;21818;51.078;12.108;2022-12-10T16:42:55;2.97;;;1.70;;
35699;SDS011;21818;51.078;12.108;2022-12-10T16:45:29;4.25;;;2.10;;
35699;SDS011;21818;51.078;12.108;2022-12-10T16:47:58;3.38;;;1.88;;
35699;SDS011;21818;51.078;12.108;2022-12-10T16:50:24;3.53;;;1.88;;
35699;SDS011;21818;51.078;12.108;2022-12-10T16:52:51;3.45;;;1.90;;